Previous Day
Next Day
Current Day
SHEF ID: FVSO2 FAIRVIEW
STATION TYPE: Mesonet
PRECIP AIR-TEMP WIND-DIRWIND-SPEED REL-HUMID SOLAR-RAD
in F deg mph % W/m2
Raw-Meson Raw-Meson Raw-Meson Raw-Meson Raw-Meson Raw-Meson
(US/Central)
06/16 00:00 0.00 76.87 154.00 4.59 65.00 0.00
06/16 01:00 0.00 74.08 147.25 3.58 73.25 0.00
06/16 02:00 0.00 73.04 144.75 4.65 75.25 0.00
06/16 03:00 0.00 72.77 159.25 5.48 76.75 0.00
06/16 04:00 0.00 71.11 139.25 3.92 81.75 0.00
06/16 05:00 0.00 69.58 146.25 2.74 87.00 0.00
06/16 06:00 0.00 68.00 134.25 2.74 89.75 0.25
06/16 07:00 0.00 70.70 112.50 2.29 82.00 39.00
06/16 08:00 0.00 77.54 148.50 2.46 69.00 190.25
06/16 09:00 0.00 82.76 238.50 6.27 58.25 369.75
06/16 10:00 0.00 86.72 231.00 9.12 51.25 558.50
06/16 11:00 0.00 89.47 240.25 9.39 47.75 722.50
06/16 12:00 0.00 92.03 217.50 6.04 41.75 869.00
06/16 13:00 0.00 94.19 191.00 7.77 34.25 958.25
06/16 14:00 0.00 97.52 174.50 9.01 28.00 976.50
06/16 15:00 0.00 98.91 168.25 8.11 23.00 950.00
06/16 16:00 0.00 100.18 176.00 9.78 22.25 869.00
06/16 17:00 0.00 100.22 178.50 10.12 22.50 735.25
06/16 18:00 0.00 100.18 184.75 9.67 21.50 569.25
06/16 19:00 0.00 99.05 180.50 10.34 22.25 375.25
06/16 20:00 0.00 95.45 181.50 8.83 29.50 178.00
06/16 21:00 0.00 88.03 184.50 6.94 42.00 26.25
06/16 22:00 0.00 82.13 189.75 7.72 51.50 0.00
06/16 23:00 ---- 82.27 179.25 7.83 50.50 0.00